Time;durP1;ratioP1;P1;durP2;ratioP2;P2;SDS_P1;SDS_P2;PMS_P1;PMS_P2;Temp;Humidity;BMP_temperature;BMP_pressure;BME280_temperature;BME280_humidity;BME280_pressure;Samples;Min_cycle;Max_cycle;Signal;HPM_P1;HPM_P2
2022/05/11 00:02:23;;;;;;;6.10;2.80;;;18.20;95.70;;;;;;10386698;28;20053;-58
2022/05/11 00:07:25;;;;;;;6.78;2.35;;;18.20;95.50;;;;;;10387171;28;20057;-58
2022/05/11 00:12:27;;;;;;;3.97;1.92;;;18.10;95.40;;;;;;10383199;28;20050;-58
2022/05/11 00:17:29;;;;;;;4.97;3.17;;;18.10;95.30;;;;;;10383855;28;20083;-58
2022/05/11 00:22:30;;;;;;;4.78;2.78;;;18.10;95.50;;;;;;10384384;28;20048;-58
2022/05/11 00:27:32;;;;;;;2.38;2.17;;;18.00;95.80;;;;;;10384575;28;20119;-58
2022/05/11 00:32:34;;;;;;;5.90;2.65;;;18.00;95.70;;;;;;10384188;28;20045;-59
2022/05/11 00:37:36;;;;;;;3.13;2.10;;;17.90;96.40;;;;;;10386041;28;20049;-59
2022/05/11 00:42:37;;;;;;;2.67;2.30;;;17.80;96.80;;;;;;10378236;28;20069;-59
2022/05/11 00:47:43;;;;;;;3.85;2.70;;;17.70;97.40;;;;;;10385504;28;20072;-59
2022/05/11 00:52:51;;;;;;;3.80;2.10;;;17.60;98.10;;;;;;10384574;28;20057;-59
2022/05/11 00:57:59;;;;;;;6.15;3.22;;;17.60;98.60;;;;;;10385849;28;20049;-59
2022/05/11 01:03:06;;;;;;;6.00;3.55;;;17.50;99.40;;;;;;10382393;28;20058;-59
2022/05/11 01:08:09;;;;;;;5.65;3.30;;;17.50;99.90;;;;;;10384083;28;20068;-56
2022/05/11 01:13:13;;;;;;;4.32;3.33;;;17.40;99.90;;;;;;10371023;28;20049;-58
2022/05/11 01:18:17;;;;;;;4.97;3.35;;;17.40;99.90;;;;;;10384544;28;20586;-59
2022/05/11 01:23:36;;;;;;;7.10;3.80;;;17.30;99.90;;;;;;10382364;28;20441;-59
2022/05/11 01:28:47;;;;;;;5.60;4.25;;;17.20;99.90;;;;;;10382679;28;20045;-58
2022/05/11 01:33:50;;;;;;;6.30;4.22;;;17.10;99.90;;;;;;10372774;28;20872;-58
2022/05/11 01:38:56;;;;;;;6.38;4.28;;;17.10;99.90;;;;;;10382928;28;20072;-58
2022/05/11 01:43:58;;;;;;;6.07;3.90;;;17.10;99.90;;;;;;10366280;28;20049;-58
2022/05/11 01:49:00;;;;;;;7.00;4.43;;;17.00;99.90;;;;;;10379159;28;20056;-58
2022/05/11 01:54:02;;;;;;;5.57;4.15;;;16.90;99.90;;;;;;10383977;28;20053;-59
2022/05/11 01:59:05;;;;;;;6.75;4.50;;;16.90;99.90;;;;;;10379456;28;20511;-59
2022/05/11 02:07:49;;;;;;;11.90;4.68;;;16.80;99.90;;;;;;10382624;28;20053;-59
2022/05/11 02:09:29;;;;;;;10.02;5.03;;;16.80;99.90;;;;;;10372977;28;20049;-58
2022/05/11 02:14:31;;;;;;;6.28;4.15;;;16.70;99.90;;;;;;10380216;28;20447;-58
2022/05/11 02:19:33;;;;;;;6.78;4.70;;;16.60;99.90;;;;;;10379107;28;20530;-58
2022/05/11 02:24:34;;;;;;;10.18;5.60;;;16.70;99.90;;;;;;10378584;28;20050;-58
2022/05/11 02:29:36;;;;;;;6.78;4.20;;;16.60;99.90;;;;;;10378736;28;20048;-58
2022/05/11 02:39:58;;;;;;;7.40;4.40;;;16.50;99.90;;;;;;10381213;28;20060;-59
2022/05/11 02:45:00;;;;;;;6.40;4.28;;;16.50;99.90;;;;;;10377248;28;20116;-59
2022/05/11 02:50:05;;;;;;;5.57;4.07;;;16.50;99.90;;;;;;10379740;28;20384;-59
2022/05/11 02:55:07;;;;;;;6.75;4.28;;;16.50;99.90;;;;;;10382181;28;20061;-59
2022/05/11 03:00:13;;;;;;;8.00;4.60;;;16.50;99.90;;;;;;10377081;28;20064;-59
2022/05/11 03:05:15;;;;;;;5.32;3.85;;;16.50;99.90;;;;;;10377867;28;20049;-59
2022/05/11 03:10:17;;;;;;;10.32;4.93;;;16.50;99.90;;;;;;10361530;28;20093;-59
2022/05/11 03:15:19;;;;;;;5.63;4.57;;;16.40;99.90;;;;;;10375465;28;20135;-59
2022/05/11 03:20:23;;;;;;;9.45;4.93;;;16.40;99.90;;;;;;10379411;28;20053;-59
2022/05/11 03:25:26;;;;;;;7.72;3.92;;;16.30;99.90;;;;;;10376882;28;20061;-59
2022/05/11 03:30:28;;;;;;;6.78;4.70;;;16.20;99.90;;;;;;10375937;28;20054;-58
2022/05/11 03:35:30;;;;;;;9.23;5.03;;;16.10;99.90;;;;;;10370242;28;20050;-59
2022/05/11 03:40:31;;;;;;;7.90;4.72;;;16.00;99.90;;;;;;10376297;28;20045;-56
2022/05/11 03:45:34;;;;;;;8.20;4.57;;;15.90;99.90;;;;;;10371338;28;20061;-60
2022/05/11 03:50:36;;;;;;;7.70;4.78;;;16.00;99.90;;;;;;10382708;28;20053;-61
2022/05/11 03:55:38;;;;;;;5.85;4.68;;;15.90;99.90;;;;;;10388113;28;20065;-61
2022/05/11 04:00:40;;;;;;;6.32;4.45;;;15.90;99.90;;;;;;10387871;28;20076;-61
2022/05/11 04:05:41;;;;;;;7.55;4.70;;;15.80;99.90;;;;;;10388370;28;20142;-61
2022/05/11 04:10:43;;;;;;;9.43;5.88;;;15.80;99.90;;;;;;10383147;28;20057;-61
2022/05/11 04:15:49;;;;;;;9.90;6.50;;;15.80;99.90;;;;;;10379405;28;21099;-61
2022/05/11 04:20:51;;;;;;;10.43;5.38;;;15.80;99.90;;;;;;10443658;23;20056;-93
2022/05/11 04:25:55;;;;;;;9.05;6.30;;;15.90;99.90;;;;;;10457889;28;20052;-92
2022/05/11 04:31:01;;;;;;;9.93;5.22;;;15.90;99.90;;;;;;10434424;28;20068;-93
2022/05/11 04:36:04;;;;;;;10.93;5.03;;;15.90;99.90;;;;;;10433092;28;20422;-94
2022/05/11 04:41:11;;;;;;;12.90;5.72;;;16.00;99.90;;;;;;10367338;28;20479;-94
2022/05/11 04:46:16;;;;;;;14.38;6.97;;;16.00;99.90;;;;;;10313646;28;20048;-93
2022/05/11 04:51:18;;;;;;;10.18;5.05;;;16.10;99.90;;;;;;10443273;28;20064;-94
2022/05/11 04:56:19;;;;;;;10.23;5.82;;;16.20;99.90;;;;;;10446442;28;20048;-94
2022/05/11 05:01:21;;;;;;;10.68;5.55;;;16.20;99.90;;;;;;10425040;28;20145;-94
2022/05/11 05:06:27;;;;;;;9.65;5.10;;;16.30;99.90;;;;;;10448219;28;20052;-93
2022/05/11 05:11:34;;;;;;;14.55;5.45;;;16.40;99.90;;;;;;10450327;28;20060;-94
2022/05/11 05:16:37;;;;;;;9.80;5.30;;;16.50;99.90;;;;;;10413018;28;20024;-94
2022/05/11 05:21:41;;;;;;;12.25;5.95;;;16.40;99.90;;;;;;10430314;28;20118;-92
2022/05/11 05:26:43;;;;;;;10.43;5.63;;;16.40;99.90;;;;;;10447150;28;20180;-92
2022/05/11 05:31:45;;;;;;;9.82;6.85;;;16.50;99.90;;;;;;10452329;28;20040;-92
2022/05/11 05:36:59;;;;;;;12.05;6.38;;;16.50;99.90;;;;;;10420502;28;20052;-92
2022/05/11 05:42:07;;;;;;;10.32;6.00;;;16.50;99.90;;;;;;10421780;28;20721;-92
2022/05/11 05:47:11;;;;;;;41.50;32.65;;;16.50;99.90;;;;;;10429150;28;20482;-92
2022/05/11 05:52:25;;;;;;;10.57;6.72;;;16.60;99.90;;;;;;10452223;28;20048;-92
2022/05/11 05:57:27;;;;;;;9.27;6.18;;;17.00;99.90;;;;;;10437407;28;20060;-93
2022/05/11 06:02:29;;;;;;;12.85;6.32;;;16.80;99.90;;;;;;10408873;23;20121;-59
2022/05/11 06:07:31;;;;;;;8.82;6.15;;;16.70;99.90;;;;;;10412463;28;20495;-60
2022/05/11 06:12:33;;;;;;;10.57;6.22;;;16.80;99.90;;;;;;10422511;28;20045;-60
2022/05/11 06:17:35;;;;;;;9.98;5.85;;;16.90;99.90;;;;;;10426357;28;20056;-59
2022/05/11 06:22:38;;;;;;;12.00;6.38;;;17.10;99.90;;;;;;10418562;28;20061;-59
2022/05/11 06:27:39;;;;;;;9.98;5.82;;;17.30;99.90;;;;;;10419195;28;20053;-59
2022/05/11 06:32:41;;;;;;;10.60;5.43;;;17.60;99.90;;;;;;10419173;28;20064;-59
2022/05/11 06:37:44;;;;;;;15.38;5.32;;;17.70;99.90;;;;;;10418262;28;20048;-60
2022/05/11 06:42:48;;;;;;;11.65;5.68;;;17.90;99.90;;;;;;10417931;28;20119;-59
2022/05/11 06:47:50;;;;;;;8.75;5.15;;;18.20;99.90;;;;;;10415253;28;20057;-60
2022/05/11 06:52:53;;;;;;;8.57;5.18;;;18.30;99.90;;;;;;10413934;28;20053;-60
2022/05/11 07:03:15;;;;;;;9.13;4.30;;;18.70;99.90;;;;;;10417908;28;20053;-59
2022/05/11 07:08:17;;;;;;;7.95;3.63;;;18.90;99.90;;;;;;10416649;28;20577;-59
2022/05/11 07:13:19;;;;;;;7.78;3.13;;;19.10;99.90;;;;;;10417022;28;20458;-60
2022/05/11 07:18:20;;;;;;;8.10;4.00;;;19.40;99.90;;;;;;10418370;28;20045;-59
2022/05/11 07:23:24;;;;;;;9.63;3.13;;;19.50;98.00;;;;;;10419281;28;20065;-59
2022/05/11 07:28:26;;;;;;;4.45;3.20;;;19.80;97.00;;;;;;10427976;28;20053;-59
2022/05/11 07:33:28;;;;;;;6.82;3.72;;;19.80;96.40;;;;;;10424129;28;20079;-60
2022/05/11 07:38:30;;;;;;;8.00;3.40;;;19.90;96.30;;;;;;10427356;28;20050;-60
2022/05/11 07:43:33;;;;;;;4.47;3.22;;;20.10;95.50;;;;;;10408069;28;20056;-59
2022/05/11 07:48:34;;;;;;;6.05;2.92;;;20.20;95.00;;;;;;10420215;28;20118;-60
2022/05/11 07:53:36;;;;;;;3.65;2.60;;;20.40;92.90;;;;;;10425821;28;20447;-60
2022/05/11 08:04:04;;;;;;;3.53;2.38;;;20.70;91.30;;;;;;10424527;28;20130;-60
2022/05/11 08:09:05;;;;;;;3.92;2.63;;;20.90;90.90;;;;;;10425139;28;20373;-61
2022/05/11 08:14:08;;;;;;;5.00;2.45;;;21.00;89.70;;;;;;10425648;28;20099;-60
2022/05/11 08:19:10;;;;;;;7.00;2.50;;;21.20;86.90;;;;;;10426195;28;20049;-60
2022/05/11 08:24:12;;;;;;;4.63;2.20;;;21.40;87.80;;;;;;10423727;28;20049;-60
2022/05/11 08:33:19;;;;;;;6.45;2.40;;;21.60;86.20;;;;;;10421604;28;20049;-59
2022/05/11 08:34:36;;;;;;;8.63;2.15;;;21.70;85.80;;;;;;10418385;28;20107;-59
2022/05/11 08:39:38;;;;;;;4.68;2.53;;;21.90;83.50;;;;;;10428364;28;20107;-59
2022/05/11 08:44:45;;;;;;;3.42;2.25;;;21.90;83.00;;;;;;10426297;28;20056;-59
2022/05/11 08:49:49;;;;;;;3.13;2.20;;;22.10;83.00;;;;;;10423066;28;20057;-59
2022/05/11 08:55:11;;;;;;;4.15;2.28;;;22.30;81.10;;;;;;10420131;28;20088;-58
2022/05/11 09:00:17;;;;;;;5.80;2.47;;;22.60;78.70;;;;;;10422318;28;20045;-60
2022/05/11 09:05:23;;;;;;;3.97;2.08;;;22.70;78.70;;;;;;10420266;28;20995;-60
2022/05/11 09:10:29;;;;;;;7.30;2.53;;;22.80;78.10;;;;;;10406554;28;20061;-59
2022/05/11 09:16:01;;;;;;;6.78;2.25;;;22.90;77.90;;;;;;10421179;28;20056;-59
2022/05/11 09:21:21;;;;;;;4.63;2.53;;;23.00;76.70;;;;;;10402247;28;20053;-59
2022/05/11 09:26:30;;;;;;;5.22;2.35;;;23.20;77.10;;;;;;10397218;28;20466;-59
2022/05/11 09:31:32;;;;;;;4.30;2.35;;;23.30;77.40;;;;;;10416490;28;20102;-61
2022/05/11 09:36:38;;;;;;;2.58;2.10;;;23.50;75.20;;;;;;10424152;28;20137;-59
2022/05/11 09:41:51;;;;;;;8.88;1.90;;;23.70;74.80;;;;;;10424625;28;20088;-60
2022/05/11 09:46:54;;;;;;;4.82;1.83;;;23.80;73.20;;;;;;10424295;28;20053;-59
2022/05/11 09:51:58;;;;;;;5.93;2.25;;;24.10;73.00;;;;;;10422495;28;20057;-59
2022/05/11 09:57:13;;;;;;;6.18;2.03;;;24.40;72.60;;;;;;10424198;28;20598;-59
2022/05/11 10:02:32;;;;;;;3.03;1.67;;;24.60;70.80;;;;;;10420367;28;20049;-59
2022/05/11 10:07:47;;;;;;;2.33;1.23;;;24.80;70.80;;;;;;10399652;28;20766;-59
2022/05/11 10:12:49;;;;;;;2.70;1.40;;;25.00;68.00;;;;;;10422048;28;20045;-59
2022/05/11 10:23:29;;;;;;;3.78;1.30;;;25.40;67.40;;;;;;10416404;28;20037;-60
2022/05/11 10:29:07;;;;;;;1.58;1.42;;;25.70;65.40;;;;;;10413602;28;20180;-59
2022/05/11 10:34:20;;;;;;;1.70;0.80;;;25.90;63.00;;;;;;10417135;28;20057;-60
2022/05/11 10:39:46;;;;;;;20.92;1.25;;;26.40;57.30;;;;;;10419635;28;20052;-60
2022/05/11 10:45:05;;;;;;;3.53;0.80;;;26.50;56.70;;;;;;10415645;28;20596;-60
2022/05/11 10:50:43;;;;;;;2.83;0.85;;;26.60;54.50;;;;;;10405585;28;20083;-60
2022/05/11 10:56:00;;;;;;;1.42;0.70;;;26.80;53.50;;;;;;10415061;28;20049;-60
2022/05/11 11:01:10;;;;;;;2.17;0.98;;;27.00;53.00;;;;;;10412711;28;20057;-59
2022/05/11 11:12:32;;;;;;;1.02;0.70;;;27.30;52.60;;;;;;10414111;28;20069;-59
2022/05/11 11:17:33;;;;;;;3.83;1.13;;;27.50;52.00;;;;;;10410783;28;20442;-59
2022/05/11 11:23:01;;;;;;;1.30;0.73;;;27.50;52.00;;;;;;10415511;28;20049;-60
2022/05/11 11:28:09;;;;;;;0.60;0.60;;;27.70;51.30;;;;;;10415881;28;20052;-60
2022/05/11 11:33:11;;;;;;;2.08;0.70;;;27.80;51.10;;;;;;10413140;28;20050;-60
2022/05/11 11:38:24;;;;;;;6.72;0.80;;;27.80;50.90;;;;;;10416061;28;20041;-60
2022/05/11 11:43:51;;;;;;;5.35;0.80;;;27.90;50.20;;;;;;10418771;28;20117;-60
2022/05/11 11:49:00;;;;;;;;;;;28.00;49.30;;;;;;10412683;28;20045;-60
2022/05/11 11:54:02;;;;;;;5.57;0.70;;;28.40;49.60;;;;;;10414354;28;19929;-59
2022/05/11 11:59:06;;;;;;;0.90;0.75;;;28.40;49.40;;;;;;10412678;28;20061;-60
2022/05/11 12:04:34;;;;;;;1.42;0.65;;;28.70;49.40;;;;;;10415619;28;20060;-60
2022/05/11 12:15:23;;;;;;;1.90;0.70;;;28.50;47.20;;;;;;10420187;28;20056;-59
2022/05/11 12:20:39;;;;;;;7.15;1.00;;;28.70;46.40;;;;;;10429276;28;20052;-60
2022/05/11 12:25:56;;;;;;;4.43;0.70;;;28.60;46.40;;;;;;10421088;28;20057;-59
2022/05/11 12:30:57;;;;;;;2.22;0.50;;;28.60;46.00;;;;;;10422296;28;20168;-60
2022/05/11 12:36:01;;;;;;;0.95;0.70;;;28.70;46.60;;;;;;10429992;28;20060;-61
2022/05/11 12:41:13;;;;;;;9.50;0.70;;;28.40;47.10;;;;;;10417649;28;20053;-59
2022/05/11 12:46:18;;;;;;;1.10;0.70;;;28.40;46.70;;;;;;10423368;28;20064;-60
2022/05/11 12:51:38;;;;;;;3.55;1.20;;;28.70;46.20;;;;;;10426292;28;20068;-59
2022/05/11 12:56:41;;;;;;;2.03;0.80;;;28.70;47.90;;;;;;10426202;28;20454;-61
2022/05/11 13:01:43;;;;;;;2.67;0.70;;;29.00;48.60;;;;;;10419638;28;20053;-59
2022/05/11 13:06:50;;;;;;;5.07;0.90;;;29.40;47.60;;;;;;10421977;28;20060;-60
2022/05/11 13:11:52;;;;;;;0.70;0.60;;;29.00;47.20;;;;;;10414306;28;20057;-65
2022/05/11 13:16:58;;;;;;;5.22;0.75;;;29.00;48.80;;;;;;10420625;28;20467;-59
2022/05/11 13:22:03;;;;;;;2.60;0.75;;;29.00;46.70;;;;;;10418426;28;20518;-59
2022/05/11 13:27:24;;;;;;;4.47;0.77;;;29.20;45.10;;;;;;10415572;28;20060;-59
2022/05/11 13:32:26;;;;;;;2.03;0.68;;;29.30;44.80;;;;;;10402925;28;20064;-58
2022/05/11 13:37:30;;;;;;;5.13;1.08;;;29.60;45.30;;;;;;10419818;28;20051;-59
2022/05/11 13:42:32;;;;;;;5.30;0.75;;;29.70;44.50;;;;;;10415598;28;20045;-59
2022/05/11 13:53:04;;;;;;;3.00;0.80;;;29.90;45.10;;;;;;10413955;28;20080;-59
2022/05/11 13:58:32;;;;;;;7.80;0.90;;;29.80;44.40;;;;;;10410111;28;20061;-59
2022/05/11 14:03:58;;;;;;;4.22;0.75;;;29.60;43.50;;;;;;10412802;28;20550;-58
2022/05/11 14:09:00;;;;;;;;;;;29.90;43.90;;;;;;10414137;28;20064;-58
2022/05/11 14:14:02;;;;;;;2.05;0.75;;;30.10;43.50;;;;;;10411314;28;19932;-59
2022/05/11 14:19:03;;;;;;;1.85;0.60;;;30.30;43.80;;;;;;10407644;28;20096;-59
2022/05/11 14:24:06;;;;;;;6.95;0.95;;;30.40;44.20;;;;;;10416151;28;20053;-59
2022/05/11 14:29:08;;;;;;;3.90;0.60;;;30.30;44.80;;;;;;10418833;28;20061;-59
2022/05/11 14:34:13;;;;;;;3.58;1.45;;;30.30;45.10;;;;;;10416996;28;20052;-59
2022/05/11 14:39:20;;;;;;;2.17;0.90;;;30.30;45.40;;;;;;10424514;28;20049;-58
2022/05/11 14:44:22;;;;;;;2.45;0.90;;;30.50;45.20;;;;;;10416002;28;20395;-59
2022/05/11 14:49:44;;;;;;;1.23;0.50;;;30.40;44.80;;;;;;10420299;28;20080;-58
2022/05/11 14:54:46;;;;;;;7.88;0.63;;;30.30;42.80;;;;;;10416438;28;20067;-59
2022/05/11 15:05:14;;;;;;;1.15;0.70;;;30.70;43.30;;;;;;10409123;28;20155;-59
2022/05/11 15:10:17;;;;;;;2.20;0.90;;;30.60;43.00;;;;;;10417030;28;20222;-58
2022/05/11 15:15:20;;;;;;;9.85;0.98;;;30.50;43.40;;;;;;10416133;28;20064;-59
2022/05/11 15:20:25;;;;;;;11.68;1.02;;;30.40;44.20;;;;;;10416528;28;21656;-59
2022/05/11 15:25:26;;;;;;;3.00;0.52;;;30.40;43.90;;;;;;10410036;28;20053;-58
2022/05/11 15:30:30;;;;;;;4.90;0.63;;;30.30;43.30;;;;;;10413363;28;20064;-58
2022/05/11 15:35:32;;;;;;;5.57;0.60;;;30.50;43.60;;;;;;10414058;28;20061;-59
2022/05/11 15:40:34;;;;;;;1.67;0.50;;;30.20;43.30;;;;;;10416676;28;20061;-58
2022/05/11 15:45:37;;;;;;;1.55;1.00;;;30.60;43.70;;;;;;10416028;28;20067;-59
2022/05/11 15:50:41;;;;;;;2.28;0.70;;;30.60;43.40;;;;;;10424457;28;20053;-58
2022/05/11 15:55:43;;;;;;;3.75;0.57;;;30.80;44.40;;;;;;10420046;28;20053;-57
2022/05/11 16:00:44;;;;;;;2.05;0.60;;;30.80;43.60;;;;;;10423817;28;20053;-58
2022/05/11 16:05:49;;;;;;;1.48;0.60;;;30.60;43.60;;;;;;10429247;28;20053;-57
2022/05/11 16:10:52;;;;;;;2.15;0.55;;;30.60;43.20;;;;;;10427449;28;20112;-58
2022/05/11 16:15:54;;;;;;;2.88;0.60;;;30.80;44.00;;;;;;10423414;28;20132;-58
2022/05/11 16:20:57;;;;;;;2.72;0.60;;;30.90;43.20;;;;;;10425201;28;20138;-58
2022/05/11 16:26:04;;;;;;;6.03;0.70;;;30.60;42.80;;;;;;10420275;28;20042;-58
2022/05/11 16:31:05;;;;;;;2.97;0.77;;;30.40;43.00;;;;;;10402606;28;20071;-60
2022/05/11 16:36:07;;;;;;;0.93;0.50;;;30.30;42.80;;;;;;10422898;28;20465;-61
2022/05/11 16:41:15;;;;;;;1.05;0.65;;;30.40;43.20;;;;;;10420739;28;20491;-60
2022/05/11 16:46:17;;;;;;;1.73;0.80;;;30.60;42.60;;;;;;10418908;28;20507;-61
2022/05/11 16:51:19;;;;;;;2.22;0.60;;;30.20;42.10;;;;;;10424415;28;20622;-60
2022/05/11 16:56:21;;;;;;;4.97;1.00;;;30.10;42.00;;;;;;10423797;28;20518;-60
2022/05/11 17:01:26;;;;;;;4.45;1.10;;;30.00;42.10;;;;;;10426604;28;20660;-60
2022/05/11 17:06:28;;;;;;;4.38;0.40;;;30.00;41.80;;;;;;10417294;28;20044;-60
2022/05/11 17:11:30;;;;;;;1.90;0.60;;;29.90;41.70;;;;;;10425013;28;20106;-60
2022/05/11 17:16:32;;;;;;;4.03;0.93;;;29.60;41.60;;;;;;10428368;28;20057;-60
2022/05/11 17:21:35;;;;;;;1.60;0.63;;;29.10;42.40;;;;;;10414666;28;20065;-60
2022/05/11 17:26:37;;;;;;;1.65;0.50;;;29.30;42.40;;;;;;10417288;28;20449;-62
2022/05/11 17:31:39;;;;;;;1.23;0.57;;;29.10;42.80;;;;;;10423554;28;20446;-60
2022/05/11 17:36:41;;;;;;;1.60;0.50;;;29.20;42.80;;;;;;10423281;28;20045;-60
2022/05/11 17:41:43;;;;;;;1.35;0.52;;;29.30;42.80;;;;;;10401465;28;20057;-60
2022/05/11 17:46:45;;;;;;;2.38;0.50;;;29.30;43.10;;;;;;10414548;28;20050;-66
2022/05/11 17:51:51;;;;;;;0.45;0.32;;;29.40;42.80;;;;;;10419519;28;20041;-60
2022/05/11 17:56:53;;;;;;;1.35;0.30;;;28.90;42.50;;;;;;10413189;28;20049;-60
2022/05/11 18:01:55;;;;;;;1.52;0.40;;;28.50;42.40;;;;;;10417576;28;20053;-60
2022/05/11 18:06:58;;;;;;;1.02;0.40;;;28.00;42.00;;;;;;10422453;28;20571;-60
2022/05/11 18:11:59;;;;;;;3.45;0.50;;;27.60;41.20;;;;;;10414272;28;20067;-60
2022/05/11 18:17:02;;;;;;;3.33;0.38;;;27.50;41.30;;;;;;10423723;28;20077;-60
2022/05/11 18:22:04;;;;;;;1.33;0.40;;;27.20;40.50;;;;;;10421856;28;20065;-60
2022/05/11 18:27:06;;;;;;;0.80;0.30;;;27.00;40.30;;;;;;10395176;28;20118;-66
2022/05/11 18:32:11;;;;;;;0.90;0.38;;;26.90;40.80;;;;;;10423657;28;20065;-65
2022/05/11 18:37:13;;;;;;;1.25;0.40;;;26.60;40.10;;;;;;10420914;28;20538;-68
2022/05/11 18:42:15;;;;;;;1.70;0.47;;;26.40;40.10;;;;;;10415507;28;20111;-66
2022/05/11 18:47:17;;;;;;;3.25;0.50;;;26.20;39.90;;;;;;10414141;28;20078;-66
2022/05/11 18:52:20;;;;;;;2.80;0.50;;;26.10;40.10;;;;;;10403483;28;20518;-67
2022/05/11 18:57:21;;;;;;;1.08;0.38;;;26.00;40.60;;;;;;10419181;28;20053;-66
2022/05/11 19:02:23;;;;;;;2.80;0.47;;;25.80;40.50;;;;;;10420606;28;20514;-60
2022/05/11 19:07:25;;;;;;;2.35;0.50;;;25.70;40.70;;;;;;10409984;28;20059;-60
2022/05/11 19:12:26;;;;;;;1.30;0.50;;;25.60;40.90;;;;;;10411644;28;20428;-61
2022/05/11 19:17:28;;;;;;;4.97;0.40;;;25.40;41.40;;;;;;10414655;28;20053;-60
2022/05/11 19:22:30;;;;;;;1.42;0.35;;;25.30;41.80;;;;;;10431232;28;20055;-60
2022/05/11 19:27:33;;;;;;;1.95;0.35;;;25.10;42.20;;;;;;10431697;28;20449;-61
2022/05/11 19:32:37;;;;;;;1.45;0.65;;;25.00;42.90;;;;;;10426456;28;20049;-61
2022/05/11 19:37:41;;;;;;;1.45;0.50;;;24.80;43.10;;;;;;10426420;28;20114;-65
2022/05/11 19:42:43;;;;;;;1.75;0.40;;;24.80;43.30;;;;;;10412864;28;20115;-64
2022/05/11 19:47:45;;;;;;;3.30;0.65;;;24.60;43.20;;;;;;10421075;28;20073;-64
2022/05/11 19:52:48;;;;;;;5.97;0.50;;;24.50;43.00;;;;;;10423223;28;20049;-65
2022/05/11 19:57:50;;;;;;;5.38;0.60;;;24.40;43.20;;;;;;10423424;28;20053;-59
2022/05/11 20:02:52;;;;;;;2.25;0.40;;;24.40;43.20;;;;;;10425194;28;23889;-59
2022/05/11 20:07:54;;;;;;;1.67;0.30;;;24.30;43.40;;;;;;10423158;28;20103;-58
2022/05/11 20:12:56;;;;;;;0.68;0.40;;;24.20;43.50;;;;;;10423629;28;20061;-59
2022/05/11 20:17:58;;;;;;;1.13;0.40;;;24.10;44.00;;;;;;10421772;28;20060;-58
2022/05/11 20:23:00;;;;;;;2.00;0.50;;;24.00;44.30;;;;;;10420598;28;20057;-58
2022/05/11 20:28:01;;;;;;;1.15;0.40;;;23.90;44.60;;;;;;10426970;28;20587;-58
2022/05/11 20:38:24;;;;;;;0.68;0.47;;;23.70;45.40;;;;;;10425582;28;20049;-58
2022/05/11 20:43:27;;;;;;;0.60;0.30;;;23.60;45.60;;;;;;10417924;28;20065;-59
2022/05/11 20:48:29;;;;;;;1.42;0.52;;;23.50;46.20;;;;;;10425096;28;20049;-59
2022/05/11 20:53:31;;;;;;;1.95;0.47;;;23.40;46.60;;;;;;10421635;28;20056;-58
2022/05/11 20:58:33;;;;;;;3.13;0.40;;;23.30;47.30;;;;;;10420982;28;20052;-58
2022/05/11 21:03:34;;;;;;;1.25;0.40;;;23.20;47.50;;;;;;10423284;28;20471;-57
2022/05/11 21:08:36;;;;;;;1.13;0.30;;;23.00;47.60;;;;;;10413802;28;20057;-58
2022/05/11 21:13:38;;;;;;;3.33;0.30;;;22.80;47.90;;;;;;10422218;28;20107;-57
2022/05/11 21:18:40;;;;;;;2.42;0.43;;;22.70;48.40;;;;;;10411316;28;20128;-58
2022/05/11 21:23:42;;;;;;;0.80;0.40;;;22.60;48.50;;;;;;10371378;28;20498;-58
2022/05/11 21:28:44;;;;;;;1.33;1.05;;;22.50;48.80;;;;;;10420862;28;20045;-57
2022/05/11 21:33:45;;;;;;;0.90;0.40;;;22.40;49.20;;;;;;10421834;28;20495;-59
2022/05/11 21:38:47;;;;;;;1.05;0.30;;;22.30;49.40;;;;;;10423074;28;20044;-58
2022/05/11 21:43:49;;;;;;;1.50;0.40;;;22.20;49.90;;;;;;10424934;28;20053;-57
2022/05/11 21:48:50;;;;;;;2.55;0.50;;;22.10;50.20;;;;;;10423945;28;20056;-57
2022/05/11 21:53:53;;;;;;;1.02;0.40;;;22.00;50.50;;;;;;10417602;28;20114;-58
2022/05/11 21:58:54;;;;;;;3.60;0.43;;;22.00;50.70;;;;;;10419028;28;20045;-58
2022/05/11 22:03:56;;;;;;;5.53;0.52;;;21.90;51.20;;;;;;10417638;28;20064;-58
2022/05/11 22:08:59;;;;;;;2.25;0.50;;;21.80;51.30;;;;;;10402271;28;20083;-58
2022/05/11 22:14:01;;;;;;;2.08;0.45;;;21.70;51.90;;;;;;10416724;28;20057;-58
2022/05/11 22:19:04;;;;;;;6.40;0.68;;;21.60;51.80;;;;;;10399857;28;20057;-57
2022/05/11 22:24:06;;;;;;;0.98;0.50;;;21.50;52.00;;;;;;10409455;28;20510;-59
2022/05/11 22:29:08;;;;;;;3.55;0.73;;;21.40;52.60;;;;;;10418822;28;20055;-59
2022/05/11 22:34:13;;;;;;;6.10;0.85;;;21.30;53.20;;;;;;10421273;28;20048;-58
2022/05/11 22:39:15;;;;;;;3.60;0.40;;;21.30;53.00;;;;;;10421800;28;20058;-58
2022/05/11 22:44:16;;;;;;;0.57;0.30;;;21.20;53.40;;;;;;10399929;28;20052;-59
2022/05/11 22:49:18;;;;;;;1.80;0.50;;;21.10;53.60;;;;;;10418088;28;20500;-58
2022/05/11 22:54:20;;;;;;;0.98;0.50;;;21.00;54.00;;;;;;10419636;28;20064;-58
2022/05/11 22:59:21;;;;;;;4.50;0.60;;;21.00;54.60;;;;;;10421060;28;20061;-59
2022/05/11 23:04:23;;;;;;;2.50;0.40;;;20.90;54.90;;;;;;10418318;28;20416;-58
2022/05/11 23:09:25;;;;;;;2.90;0.50;;;20.80;55.20;;;;;;10423395;28;20584;-59
2022/05/11 23:14:27;;;;;;;2.75;0.60;;;20.70;55.60;;;;;;10419973;28;20073;-57
2022/05/11 23:19:29;;;;;;;4.45;0.55;;;20.60;56.10;;;;;;10420003;28;20520;-58
2022/05/11 23:24:30;;;;;;;2.97;0.50;;;20.50;56.60;;;;;;10418946;28;20052;-57
2022/05/11 23:29:32;;;;;;;0.93;0.43;;;20.40;57.00;;;;;;10421147;28;20087;-57
2022/05/11 23:34:34;;;;;;;1.77;0.60;;;20.40;57.70;;;;;;10420348;28;20479;-58
2022/05/11 23:39:36;;;;;;;1.25;0.57;;;20.30;58.00;;;;;;10405781;28;20048;-57
2022/05/11 23:44:38;;;;;;;1.58;0.85;;;20.20;58.50;;;;;;10415966;28;20481;-57
2022/05/11 23:49:40;;;;;;;2.08;0.50;;;20.10;59.00;;;;;;10423374;28;20056;-58
2022/05/11 23:54:44;;;;;;;3.88;0.68;;;20.00;59.50;;;;;;10422529;28;20044;-57
2022/05/11 23:59:46;;;;;;;0.60;0.50;;;19.90;60.00;;;;;;10423595;28;20515;-57
